Time;durP1;ratioP1;P1;durP2;ratioP2;P2;SDS_P1;SDS_P2;PMS_P1;PMS_P2;Temp;Humidity;BMP_temperature;BMP_pressure;BME280_temperature;BME280_humidity;BME280_pressure;Samples;Min_cycle;Max_cycle;Signal;HPM_P1;HPM_P2
2024/05/07 00:01:36;;;;;;;;;;;;;;;7.59;100.00;101318.72;5419025;26;20297;-63
2024/05/07 00:04:03;;;;;;;;;;;;;;;7.56;100.00;101331.72;5419392;26;19929;-62
2024/05/07 00:06:28;;;;;;;;;;;;;;;7.58;100.00;101324.78;5411665;26;20340;-63
2024/05/07 00:08:53;;;;;;;;;;;;;;;7.58;100.00;101321.25;5430395;26;20454;-64
2024/05/07 00:11:18;;;;;;;;;;;;;;;7.56;100.00;101329.06;5422499;26;19940;-62
2024/05/07 00:13:44;;;;;;;;;;;;;;;7.56;100.00;101329.06;5413619;26;19944;-64
2024/05/07 00:16:09;;;;;;;;;;;;;;;7.62;100.00;101344.22;5412694;26;19959;-63
2024/05/07 00:18:35;;;;;;;;;;;;;;;7.67;100.00;101343.63;5406406;26;19985;-63
2024/05/07 00:21:01;;;;;;;;;;;;;;;7.69;100.00;101342.00;5404829;26;19940;-63
2024/05/07 00:23:26;;;;;;;;;;;;;;;7.72;100.00;101340.34;5415354;26;19929;-62
2024/05/07 00:25:51;;;;;;;;;;;;;;;7.67;100.00;101346.28;5410516;26;19937;-62
2024/05/07 00:28:16;;;;;;;;;;;;;;;7.75;100.00;101356.28;5415446;26;19928;-63
2024/05/07 00:30:41;;;;;;;;;;;;;;;7.74;100.00;101350.09;5418777;26;19970;-62
2024/05/07 00:33:07;;;;;;;;;;;;;;;7.78;100.00;101353.78;5418339;26;20363;-63
2024/05/07 00:35:32;;;;;;;;;;;;;;;7.81;100.00;101353.91;5417514;26;19929;-63
2024/05/07 00:37:58;;;;;;;;;;;;;;;7.82;100.00;101363.63;5417240;26;19929;-62
2024/05/07 00:40:23;;;;;;;;;;;;;;;7.81;100.00;101364.44;5425805;26;19963;-62
2024/05/07 00:42:54;;;;;;;;;;;;;;;7.84;100.00;101367.22;5418143;26;19943;-64
2024/05/07 00:45:20;;;;;;;;;;;;;;;7.89;100.00;101360.47;5406889;26;20441;-64
2024/05/07 00:47:46;;;;;;;;;;;;;;;7.88;100.00;101358.66;5414143;26;20025;-62
2024/05/07 00:50:12;;;;;;;;;;;;;;;7.92;100.00;101356.25;5423787;26;19959;-62
2024/05/07 00:52:38;;;;;;;;;;;;;;;7.91;100.00;101356.19;5420788;26;19963;-63
2024/05/07 00:55:03;;;;;;;;;;;;;;;7.95;100.00;101356.41;5410603;26;19928;-63
2024/05/07 00:57:29;;;;;;;;;;;;;;;7.98;100.00;101361.78;5412003;26;19969;-63
2024/05/07 00:59:55;;;;;;;;;;;;;;;8.04;100.00;101361.19;5411070;26;19935;-62
2024/05/07 01:02:20;;;;;;;;;;;;;;;8.08;100.00;101362.22;5414237;26;19952;-63
2024/05/07 01:04:45;;;;;;;;;;;;;;;8.07;100.00;101365.69;5406624;26;20072;-63
2024/05/07 01:07:10;;;;;;;;;;;;;;;8.10;100.00;101361.47;5410215;26;19930;-64
2024/05/07 01:09:36;;;;;;;;;;;;;;;8.13;100.00;101360.72;5410085;26;19993;-63
2024/05/07 01:12:01;;;;;;;;;;;;;;;8.19;100.00;101364.53;5407146;26;19934;-61
2024/05/07 01:14:26;;;;;;;;;;;;;;;8.18;100.00;101362.72;5421965;26;20365;-63
2024/05/07 01:16:51;;;;;;;;;;;;;;;8.30;100.00;101365.03;5426820;26;19929;-62
2024/05/07 01:19:17;;;;;;;;;;;;;;;8.36;100.00;101371.50;5429174;26;19980;-63
2024/05/07 01:21:42;;;;;;;;;;;;;;;8.34;100.00;101372.25;5419512;26;19936;-62
2024/05/07 01:24:07;;;;;;;;;;;;;;;8.30;100.00;101371.22;5418780;26;20048;-63
2024/05/07 01:26:32;;;;;;;;;;;;;;;8.33;100.00;101363.47;5408674;26;19937;-62
2024/05/07 01:28:58;;;;;;;;;;;;;;;8.32;100.00;101373.91;5413360;26;19964;-63
2024/05/07 01:31:23;;;;;;;;;;;;;;;8.32;100.00;101374.81;5413810;26;19963;-62
2024/05/07 01:33:48;;;;;;;;;;;;;;;8.27;100.00;101376.34;5410378;26;19937;-64
2024/05/07 01:36:14;;;;;;;;;;;;;;;8.27;100.00;101375.44;5403311;26;20398;-63
2024/05/07 01:38:39;;;;;;;;;;;;;;;8.24;100.00;101375.28;5411639;26;19971;-63
2024/05/07 01:41:04;;;;;;;;;;;;;;;8.14;100.00;101373.06;5409751;26;20330;-62
2024/05/07 01:43:29;;;;;;;;;;;;;;;8.18;100.00;101377.63;5417862;26;19936;-64
2024/05/07 01:45:54;;;;;;;;;;;;;;;8.16;100.00;101377.53;5410938;26;19961;-62
2024/05/07 01:48:19;;;;;;;;;;;;;;;8.13;100.00;101376.53;5431765;26;20009;-63
2024/05/07 01:50:45;;;;;;;;;;;;;;;7.98;100.00;101377.56;5422738;26;20006;-63
2024/05/07 01:53:10;;;;;;;;;;;;;;;7.91;100.00;101388.66;5430599;26;19959;-62
2024/05/07 01:55:35;;;;;;;;;;;;;;;7.93;100.00;101394.00;5409262;26;20442;-63
2024/05/07 01:58:01;;;;;;;;;;;;;;;7.92;100.00;101386.94;5415385;26;19936;-62
2024/05/07 02:00:26;;;;;;;;;;;;;;;7.96;100.00;101397.69;5416050;26;20011;-61
2024/05/07 02:02:51;;;;;;;;;;;;;;;7.97;100.00;101401.19;5428045;26;19971;-62
2024/05/07 02:05:16;;;;;;;;;;;;;;;8.08;100.00;101404.34;5403759;26;19940;-63
2024/05/07 02:07:41;;;;;;;;;;;;;;;8.11;100.00;101394.88;5417286;26;19937;-62
2024/05/07 02:10:07;;;;;;;;;;;;;;;8.06;100.00;101401.66;5423501;26;19932;-61
2024/05/07 02:12:32;;;;;;;;;;;;;;;8.04;100.00;101404.22;5416692;26;19940;-63
2024/05/07 02:14:57;;;;;;;;;;;;;;;8.02;100.00;101403.22;5417943;26;19933;-63
2024/05/07 02:17:22;;;;;;;;;;;;;;;8.02;100.00;101399.69;5421794;26;19981;-63
2024/05/07 02:19:47;;;;;;;;;;;;;;;7.97;100.00;101406.47;5421934;26;20423;-63
2024/05/07 02:22:12;;;;;;;;;;;;;;;7.88;100.00;101406.94;5417497;26;20013;-62
2024/05/07 02:24:38;;;;;;;;;;;;;;;7.86;100.00;101407.69;5422456;26;19937;-62
2024/05/07 02:27:03;;;;;;;;;;;;;;;7.82;100.00;101413.63;5401783;26;19963;-62
2024/05/07 02:29:28;;;;;;;;;;;;;;;7.68;100.00;101419.13;5411720;26;19937;-63
2024/05/07 02:31:53;;;;;;;;;;;;;;;7.52;100.00;101426.16;5407803;26;20265;-62
2024/05/07 02:34:18;;;;;;;;;;;;;;;7.44;100.00;101433.69;5411949;26;20353;-61
2024/05/07 02:36:44;;;;;;;;;;;;;;;7.46;100.00;101439.91;5425890;26;19949;-62
2024/05/07 02:39:09;;;;;;;;;;;;;;;7.47;100.00;101444.34;5426676;26;19985;-64
2024/05/07 02:41:34;;;;;;;;;;;;;;;7.45;100.00;101451.25;5419370;26;19936;-62
2024/05/07 02:43:59;;;;;;;;;;;;;;;7.52;100.00;101442.84;5420048;26;19968;-63
2024/05/07 02:46:24;;;;;;;;;;;;;;;7.60;100.00;101435.38;5412756;26;19936;-62
2024/05/07 02:48:49;;;;;;;;;;;;;;;7.68;100.00;101445.44;5427595;26;20421;-63
2024/05/07 02:51:16;;;;;;;;;;;;;;;7.70;100.00;101440.25;5414040;26;19944;-63
2024/05/07 02:53:42;;;;;;;;;;;;;;;7.77;100.00;101449.34;5419713;26;19930;-62
2024/05/07 02:56:07;;;;;;;;;;;;;;;7.83;100.00;101454.91;5425726;26;20549;-63
2024/05/07 02:58:32;;;;;;;;;;;;;;;7.79;100.00;101447.72;5423296;26;19963;-64
2024/05/07 03:00:58;;;;;;;;;;;;;;;7.90;100.00;101455.28;5411528;26;19959;-62
2024/05/07 03:03:23;;;;;;;;;;;;;;;7.93;100.00;101458.06;5415408;26;20827;-62
2024/05/07 03:05:50;;;;;;;;;;;;;;;8.15;100.00;101454.72;5421407;26;20059;-62
2024/05/07 03:08:15;;;;;;;;;;;;;;;8.20;100.00;101458.50;5415235;26;19944;-64
2024/05/07 03:10:40;;;;;;;;;;;;;;;8.21;100.00;101469.94;5401963;26;19933;-63
2024/05/07 03:13:06;;;;;;;;;;;;;;;8.27;100.00;101462.34;5408908;26;20218;-63
2024/05/07 03:15:31;;;;;;;;;;;;;;;8.33;100.00;101466.19;5414093;26;20354;-62
2024/05/07 03:17:56;;;;;;;;;;;;;;;8.38;100.00;101464.69;5424717;26;20451;-63
2024/05/07 03:20:21;;;;;;;;;;;;;;;8.41;100.00;101468.28;5422683;26;19960;-62
2024/05/07 03:22:50;;;;;;;;;;;;;;;8.44;100.00;101468.44;5414285;26;20000;-62
2024/05/07 03:25:15;;;;;;;;;;;;;;;8.46;100.00;101462.41;5407574;26;19936;-64
2024/05/07 03:27:44;;;;;;;;;;;;;;;8.53;100.00;101460.94;5407048;26;20479;-63
2024/05/07 03:30:09;;;;;;;;;;;;;;;8.37;100.00;101462.88;5413699;26;19943;-62
2024/05/07 03:32:34;;;;;;;;;;;;;;;8.46;100.00;101461.50;5406288;26;20387;-62
2024/05/07 03:34:59;;;;;;;;;;;;;;;8.57;100.00;101470.81;5404294;26;19959;-62
2024/05/07 03:37:24;;;;;;;;;;;;;;;8.47;100.00;101469.50;5417727;26;19933;-63
2024/05/07 03:39:50;;;;;;;;;;;;;;;8.52;100.00;101482.84;5408737;26;19929;-63
2024/05/07 03:42:15;;;;;;;;;;;;;;;8.66;100.00;101471.22;5412962;26;20458;-62
2024/05/07 03:44:40;;;;;;;;;;;;;;;8.60;100.00;101478.88;5418158;26;20380;-62
2024/05/07 03:47:05;;;;;;;;;;;;;;;8.75;100.00;101476.94;5415801;26;20174;-63
2024/05/07 03:49:30;;;;;;;;;;;;;;;8.78;100.00;101482.34;5415974;26;19959;-63
2024/05/07 03:51:56;;;;;;;;;;;;;;;8.69;100.00;101482.81;5401234;26;20369;-62
2024/05/07 03:54:21;;;;;;;;;;;;;;;8.73;100.00;101494.41;5409311;26;20369;-62
2024/05/07 03:56:46;;;;;;;;;;;;;;;8.77;100.00;101493.72;5403239;26;19937;-62
2024/05/07 03:59:15;;;;;;;;;;;;;;;8.82;100.00;101494.84;5417348;26;20002;-62
2024/05/07 04:01:40;;;;;;;;;;;;;;;8.77;100.00;101496.38;5411478;26;19937;-61
2024/05/07 04:04:06;;;;;;;;;;;;;;;8.79;100.00;101499.97;5412215;26;20254;-64
2024/05/07 04:06:31;;;;;;;;;;;;;;;8.76;100.00;101507.72;5416648;26;19929;-63
2024/05/07 04:08:56;;;;;;;;;;;;;;;8.81;100.00;101511.50;5407047;26;19945;-62
2024/05/07 04:11:22;;;;;;;;;;;;;;;8.81;100.00;101507.97;5417096;26;19960;-63
2024/05/07 04:13:47;;;;;;;;;;;;;;;8.78;100.00;101508.72;5423967;26;20317;-62
2024/05/07 04:16:12;;;;;;;;;;;;;;;8.77;100.00;101514.81;5411304;26;20613;-64
2024/05/07 04:18:39;;;;;;;;;;;;;;;8.79;100.00;101506.97;5406306;26;20002;-62
2024/05/07 04:21:05;;;;;;;;;;;;;;;8.85;100.00;101505.50;5409524;26;19941;-62
2024/05/07 04:23:30;;;;;;;;;;;;;;;8.88;100.00;101510.03;5407129;26;20006;-64
2024/05/07 04:25:55;;;;;;;;;;;;;;;9.21;100.00;101510.66;5406663;26;19942;-62
2024/05/07 04:28:20;;;;;;;;;;;;;;;9.54;100.00;101512.13;5395719;26;20531;-63
2024/05/07 04:30:45;;;;;;;;;;;;;;;10.17;100.00;101506.88;5417032;26;20022;-63
2024/05/07 04:33:11;;;;;;;;;;;;;;;9.94;100.00;101508.56;5408931;26;19948;-61
2024/05/07 04:35:37;;;;;;;;;;;;;;;10.02;100.00;101512.44;5403382;26;20044;-63
2024/05/07 04:38:02;;;;;;;;;;;;;;;10.04;100.00;101509.00;5412858;26;19975;-64
2024/05/07 04:40:27;;;;;;;;;;;;;;;10.22;100.00;101506.22;5415099;26;20015;-62
2024/05/07 04:42:52;;;;;;;;;;;;;;;10.49;100.00;101510.84;5410655;26;20368;-63
2024/05/07 04:45:17;;;;;;;;;;;;;;;10.59;100.00;101502.41;5413866;26;19928;-63
2024/05/07 04:47:43;;;;;;;;;;;;;;;10.50;100.00;101502.06;5400102;26;19937;-62
2024/05/07 04:50:08;;;;;;;;;;;;;;;10.58;100.00;101508.53;5420393;26;19937;-63
2024/05/07 04:52:33;;;;;;;;;;;;;;;10.69;100.00;101504.59;5406089;26;20419;-63
2024/05/07 04:55:00;;;;;;;;;;;;;;;10.94;100.00;101502.03;5411050;26;19937;-62
2024/05/07 04:57:26;;;;;;;;;;;;;;;11.01;100.00;101512.00;5411854;26;19940;-63
2024/05/07 04:59:51;;;;;;;;;;;;;;;10.77;100.00;101519.00;5398335;26;19939;-64
2024/05/07 05:02:16;;;;;;;;;;;;;;;10.87;100.00;101505.31;5410430;26;19941;-63
2024/05/07 05:04:41;;;;;;;;;;;;;;;10.92;100.00;101514.28;5399461;26;20375;-63
2024/05/07 05:07:07;;;;;;;;;;;;;;;11.19;100.00;101502.94;5400625;26;19929;-62
2024/05/07 05:09:32;;;;;;;;;;;;;;;11.27;100.00;101507.66;5399029;26;19929;-65
2024/05/07 05:11:57;;;;;;;;;;;;;;;11.46;100.00;101501.28;5410859;26;20356;-71
2024/05/07 05:14:22;;;;;;;;;;;;;;;11.82;100.00;101494.66;5424832;26;19928;-70
2024/05/07 05:16:47;;;;;;;;;;;;;;;12.01;100.00;101508.53;5415758;26;19936;-70
2024/05/07 05:19:13;;;;;;;;;;;;;;;12.14;100.00;101505.41;5414428;26;19944;-71
2024/05/07 05:21:38;;;;;;;;;;;;;;;11.99;100.00;101507.56;5409853;26;20574;-69
2024/05/07 05:24:04;;;;;;;;;;;;;;;11.90;100.00;101512.56;5395786;26;19986;-72
2024/05/07 05:26:30;;;;;;;;;;;;;;;11.82;100.00;101518.50;5414827;26;20014;-71
2024/05/07 05:28:55;;;;;;;;;;;;;;;11.55;100.00;101516.59;5394417;26;20980;-70
2024/05/07 05:31:20;;;;;;;;;;;;;;;11.54;100.00;101526.28;5371623;26;19941;-71
2024/05/07 05:33:46;;;;;;;;;;;;;;;11.42;100.00;101528.50;5397837;26;19929;-71
2024/05/07 05:36:11;;;;;;;;;;;;;;;12.12;100.00;101526.56;5392746;26;19944;-70
2024/05/07 05:38:37;;;;;;;;;;;;;;;13.57;100.00;101513.34;5372300;26;20024;-70
2024/05/07 05:41:02;;;;;;;;;;;;;;;13.14;100.00;101500.59;5376769;26;20368;-71
2024/05/07 05:43:27;;;;;;;;;;;;;;;13.39;100.00;101501.31;5385519;26;19929;-70
2024/05/07 05:45:52;;;;;;;;;;;;;;;14.06;100.00;101508.38;5386982;26;19945;-71
2024/05/07 05:48:18;;;;;;;;;;;;;;;15.28;100.00;101502.34;5389290;26;20431;-70
2024/05/07 05:50:43;;;;;;;;;;;;;;;15.69;100.00;101493.38;5372407;26;19967;-71
2024/05/07 05:53:09;;;;;;;;;;;;;;;15.55;100.00;101493.09;5372552;26;20024;-70
2024/05/07 05:55:34;;;;;;;;;;;;;;;14.01;100.00;101510.06;5373071;26;19969;-69
2024/05/07 05:58:00;;;;;;;;;;;;;;;12.96;100.00;101526.59;5376563;26;19967;-70
2024/05/07 06:00:25;;;;;;;;;;;;;;;12.39;100.00;101531.88;5382058;26;19970;-68
2024/05/07 06:02:50;;;;;;;;;;;;;;;12.24;100.00;101536.69;5387578;26;19989;-70
2024/05/07 06:05:15;;;;;;;;;;;;;;;11.74;100.00;101538.50;5381386;26;20000;-69
2024/05/07 06:07:40;;;;;;;;;;;;;;;11.71;100.00;101535.75;5377085;26;20424;-70
2024/05/07 06:10:06;;;;;;;;;;;;;;;12.02;100.00;101539.47;5379450;26;19967;-69
2024/05/07 06:12:31;;;;;;;;;;;;;;;11.87;100.00;101538.94;5395117;26;19965;-71
2024/05/07 06:14:56;;;;;;;;;;;;;;;11.91;100.00;101546.16;5376931;26;19973;-70
2024/05/07 06:17:21;;;;;;;;;;;;;;;12.15;100.00;101536.38;5404516;26;20051;-69
2024/05/07 06:19:46;;;;;;;;;;;;;;;12.28;100.00;101546.56;5384148;26;19970;-72
2024/05/07 06:22:12;;;;;;;;;;;;;;;12.55;100.00;101539.47;5382233;26;19983;-71
2024/05/07 06:24:37;;;;;;;;;;;;;;;12.41;100.00;101540.78;5398997;26;19981;-72
2024/05/07 06:27:03;;;;;;;;;;;;;;;12.67;100.00;101543.34;5377995;26;20030;-70
2024/05/07 06:29:28;;;;;;;;;;;;;;;12.88;100.00;101538.72;5398805;26;20079;-71
2024/05/07 06:31:53;;;;;;;;;;;;;;;12.88;100.00;101544.03;5395965;26;19982;-71
2024/05/07 06:34:19;;;;;;;;;;;;;;;12.51;100.00;101537.56;5411266;26;19969;-70
2024/05/07 06:36:44;;;;;;;;;;;;;;;13.12;100.00;101539.47;5406756;26;19998;-67
2024/05/07 06:39:09;;;;;;;;;;;;;;;13.09;100.00;101539.38;5377577;26;19965;-69
2024/05/07 06:41:34;;;;;;;;;;;;;;;13.57;100.00;101533.69;5376362;26;19976;-71
2024/05/07 06:43:59;;;;;;;;;;;;;;;13.56;100.00;101537.19;5385120;26;19977;-72
2024/05/07 06:46:25;;;;;;;;;;;;;;;13.67;100.00;101541.06;5379727;26;20317;-72
2024/05/07 06:48:50;;;;;;;;;;;;;;;13.91;100.00;101538.13;5384740;26;20413;-70
2024/05/07 06:51:15;;;;;;;;;;;;;;;14.19;100.00;101545.09;5408221;26;20743;-68
2024/05/07 06:53:41;;;;;;;;;;;;;;;14.27;100.00;101551.47;5375601;26;20417;-71
2024/05/07 06:56:07;;;;;;;;;;;;;;;14.60;100.00;101549.66;5374778;26;19982;-68
2024/05/07 06:58:32;;;;;;;;;;;;;;;14.34;100.00;101541.91;5382380;26;20800;-70
2024/05/07 07:00:58;;;;;;;;;;;;;;;14.66;100.00;101540.94;5400919;26;20561;-71
2024/05/07 07:03:23;;;;;;;;;;;;;;;14.25;100.00;101553.19;5395119;26;19973;-71
2024/05/07 07:05:49;;;;;;;;;;;;;;;13.81;100.00;101560.94;5374820;26;19966;-69
2024/05/07 07:08:15;;;;;;;;;;;;;;;13.92;100.00;101564.75;5390140;26;19977;-72
2024/05/07 07:10:43;;;;;;;;;;;;;;;13.79;100.00;101567.06;5374260;26;20056;-70
2024/05/07 07:13:08;;;;;;;;;;;;;;;13.65;100.00;101568.44;5374551;26;20028;-70
2024/05/07 07:15:33;;;;;;;;;;;;;;;13.83;100.00;101575.16;5375580;26;19969;-72
2024/05/07 07:17:58;;;;;;;;;;;;;;;14.36;100.00;101575.66;5385518;26;19987;-70
2024/05/07 07:20:24;;;;;;;;;;;;;;;14.88;100.00;101574.28;5390983;26;19994;-72
2024/05/07 07:22:50;;;;;;;;;;;;;;;14.62;100.00;101587.84;5384617;26;19966;-70
2024/05/07 07:25:15;;;;;;;;;;;;;;;14.89;100.00;101576.06;5376614;26;20352;-72
2024/05/07 07:27:40;;;;;;;;;;;;;;;15.21;100.00;101572.34;5393885;26;19978;-71
2024/05/07 07:30:06;;;;;;;;;;;;;;;15.48;100.00;101568.44;5390564;26;20180;-73
2024/05/07 07:32:31;;;;;;;;;;;;;;;15.73;100.00;101576.09;5375924;26;20832;-72
2024/05/07 07:34:56;;;;;;;;;;;;;;;15.73;100.00;101565.44;5386827;26;20011;-72
2024/05/07 07:37:23;;;;;;;;;;;;;;;15.05;100.00;101582.63;5411367;26;19933;-73
2024/05/07 07:39:48;;;;;;;;;;;;;;;14.95;100.00;101582.41;5411398;26;19936;-71
2024/05/07 07:42:13;;;;;;;;;;;;;;;15.00;100.00;101582.53;5393775;26;20333;-72
2024/05/07 07:44:38;;;;;;;;;;;;;;;15.40;100.00;101581.63;5403931;26;19998;-72
2024/05/07 07:47:04;;;;;;;;;;;;;;;15.63;100.00;101574.13;5411437;26;20685;-72
2024/05/07 07:49:29;;;;;;;;;;;;;;;15.46;100.00;101583.50;5411026;26;20261;-73
2024/05/07 07:51:54;;;;;;;;;;;;;;;15.06;100.00;101585.34;5401089;26;19959;-71
2024/05/07 07:54:19;;;;;;;;;;;;;;;14.79;100.00;101582.03;5396292;26;19959;-71
2024/05/07 07:56:44;;;;;;;;;;;;;;;14.62;100.00;101590.50;5403559;26;19998;-71
2024/05/07 07:59:11;;;;;;;;;;;;;;;15.00;100.00;101594.94;5392440;26;19974;-69
2024/05/07 08:01:36;;;;;;;;;;;;;;;14.98;100.00;101594.91;5408420;26;19929;-71
2024/05/07 08:04:02;;;;;;;;;;;;;;;15.37;100.00;101586.00;5389078;26;19936;-72
2024/05/07 08:06:27;;;;;;;;;;;;;;;15.40;100.00;101592.28;5411371;26;20279;-70
2024/05/07 08:08:52;;;;;;;;;;;;;;;15.45;100.00;101589.69;5411158;26;20506;-72
2024/05/07 08:11:18;;;;;;;;;;;;;;;15.35;100.00;101587.72;5410862;26;19935;-71
2024/05/07 08:13:43;;;;;;;;;;;;;;;15.54;100.00;101587.25;5411093;26;19928;-73
2024/05/07 08:16:08;;;;;;;;;;;;;;;15.25;100.00;101592.84;5410908;26;19928;-69
2024/05/07 08:18:33;;;;;;;;;;;;;;;15.58;100.00;101590.03;5410675;26;20361;-73
2024/05/07 08:21:00;;;;;;;;;;;;;;;15.73;100.00;101588.53;5410304;26;19959;-72
2024/05/07 08:23:25;;;;;;;;;;;;;;;15.79;100.00;101586.88;5410210;26;20007;-72
2024/05/07 08:25:50;;;;;;;;;;;;;;;15.86;100.00;101594.13;5410190;26;20399;-73
2024/05/07 08:28:19;;;;;;;;;;;;;;;16.17;100.00;101592.91;5403182;26;19936;-71
2024/05/07 08:30:45;;;;;;;;;;;;;;;16.38;100.00;101594.16;5410228;26;19959;-69
2024/05/07 08:33:17;;;;;;;;;;;;;;;16.63;100.00;101597.28;5410454;26;19936;-72
2024/05/07 08:35:42;;;;;;;;;;;;;;;16.79;100.00;101593.13;5410893;26;19971;-71
2024/05/07 08:38:11;;;;;;;;;;;;;;;17.09;100.00;101595.31;5410142;26;20438;-70
2024/05/07 08:40:36;;;;;;;;;;;;;;;16.34;100.00;101598.56;5410376;26;20313;-71
2024/05/07 08:43:01;;;;;;;;;;;;;;;15.95;100.00;101604.97;5410029;26;20492;-70
2024/05/07 08:45:31;;;;;;;;;;;;;;;15.72;100.00;101600.97;5410039;26;19932;-69
2024/05/07 08:47:56;;;;;;;;;;;;;;;16.11;100.00;101606.13;5409945;26;19991;-72
2024/05/07 08:50:22;;;;;;;;;;;;;;;16.21;100.00;101601.88;5410080;26;19929;-69
2024/05/07 08:52:47;;;;;;;;;;;;;;;16.17;100.00;101610.69;5409682;26;19940;-70
2024/05/07 08:55:20;;;;;;;;;;;;;;;15.97;100.00;101607.66;5410316;26;19944;-73
2024/05/07 08:57:45;;;;;;;;;;;;;;;16.84;100.00;101606.50;5410423;26;19929;-69
2024/05/07 09:00:11;;;;;;;;;;;;;;;16.70;100.00;101615.22;5409967;26;19935;-68
2024/05/07 09:02:36;;;;;;;;;;;;;;;16.47;100.00;101608.56;5409870;26;19929;-69
2024/05/07 09:05:01;;;;;;;;;;;;;;;16.84;100.00;101611.84;5385118;26;19929;-73
2024/05/07 09:07:31;;;;;;;;;;;;;;;16.83;100.00;101620.72;5410060;26;19933;-70
2024/05/07 09:09:56;;;;;;;;;;;;;;;17.17;100.00;101612.34;5410028;26;20278;-70
2024/05/07 09:12:21;;;;;;;;;;;;;;;16.96;100.00;101604.03;5409993;26;20368;-72
2024/05/07 09:14:50;;;;;;;;;;;;;;;16.70;100.00;101609.88;5389076;26;19930;-69
2024/05/07 09:17:15;;;;;;;;;;;;;;;16.78;100.00;101611.78;5407352;26;19967;-69
2024/05/07 09:19:40;;;;;;;;;;;;;;;16.80;100.00;101613.56;5410314;26;20371;-71
2024/05/07 09:22:06;;;;;;;;;;;;;;;16.68;100.00;101622.28;5385367;26;19945;-70
2024/05/07 09:24:31;;;;;;;;;;;;;;;16.89;100.00;101620.84;5410463;26;19940;-70
2024/05/07 09:26:56;;;;;;;;;;;;;;;16.48;100.00;101623.69;5410082;26;19929;-72
2024/05/07 09:29:21;;;;;;;;;;;;;;;16.40;100.00;101614.69;5395426;26;20280;-72
2024/05/07 09:31:47;;;;;;;;;;;;;;;16.29;100.00;101616.22;5410433;26;19963;-69
2024/05/07 09:34:14;;;;;;;;;;;;;;;16.56;100.00;101611.38;5413024;26;20402;-72
2024/05/07 09:36:45;;;;;;;;;;;;;;;16.94;100.00;101613.81;5411247;26;20349;-76
2024/05/07 09:39:15;;;;;;;;;;;;;;;16.74;100.00;101609.94;5412968;26;20252;-71
2024/05/07 09:41:41;;;;;;;;;;;;;;;17.18;100.00;101611.47;5412560;26;19979;-72
2024/05/07 09:44:07;;;;;;;;;;;;;;;17.03;100.00;101609.47;5413010;26;19972;-71
2024/05/07 09:46:37;;;;;;;;;;;;;;;16.99;100.00;101612.06;5413064;26;19936;-71
2024/05/07 09:49:03;;;;;;;;;;;;;;;16.77;100.00;101609.97;5412914;26;19959;-70
2024/05/07 09:51:30;;;;;;;;;;;;;;;16.62;100.00;101611.47;5387813;26;19983;-70
2024/05/07 09:53:55;;;;;;;;;;;;;;;16.63;100.00;101615.06;5413039;26;19940;-70
2024/05/07 09:56:20;;;;;;;;;;;;;;;16.94;100.00;101605.78;5412398;26;20365;-69
2024/05/07 09:58:47;;;;;;;;;;;;;;;17.22;100.00;101599.97;5412615;26;19929;-72
2024/05/07 10:01:17;;;;;;;;;;;;;;;17.48;100.00;101612.78;5412566;26;19936;-69
2024/05/07 10:03:42;;;;;;;;;;;;;;;17.69;100.00;101605.03;5412005;26;19990;-69
2024/05/07 10:06:08;;;;;;;;;;;;;;;18.31;100.00;101604.81;5412696;26;19930;-71
2024/05/07 10:08:33;;;;;;;;;;;;;;;18.14;100.00;101601.97;5387366;26;19999;-71
2024/05/07 10:10:58;;;;;;;;;;;;;;;17.20;100.00;101615.06;5412651;26;19936;-71
2024/05/07 10:13:24;;;;;;;;;;;;;;;17.17;100.00;101616.78;5412475;26;19998;-71
2024/05/07 10:15:50;;;;;;;;;;;;;;;17.66;100.00;101611.22;5412526;26;19940;-70
2024/05/07 10:18:23;;;;;;;;;;;;;;;18.08;100.00;101613.50;5404608;26;19930;-71
2024/05/07 10:21:01;;;;;;;;;;;;;;;18.23;100.00;101611.84;5411914;26;19971;-71
2024/05/07 10:23:27;;;;;;;;;;;;;;;17.85;100.00;101615.03;5412763;26;19937;-71
2024/05/07 10:25:52;;;;;;;;;;;;;;;18.08;100.00;101609.94;5413084;26;19931;-71
2024/05/07 10:28:18;;;;;;;;;;;;;;;17.88;100.00;101612.38;5412453;26;19940;-72
2024/05/07 10:30:47;;;;;;;;;;;;;;;17.91;100.00;101620.44;5412500;26;19929;-70
2024/05/07 10:33:15;;;;;;;;;;;;;;;17.72;100.00;101618.44;5401805;26;19963;-67
2024/05/07 10:35:47;;;;;;;;;;;;;;;17.44;100.00;101622.53;5398945;26;19929;-72
2024/05/07 10:38:18;;;;;;;;;;;;;;;18.00;100.00;101620.56;5410653;26;20253;-71
2024/05/07 10:40:43;;;;;;;;;;;;;;;18.59;100.00;101622.94;5412698;26;20680;-70
2024/05/07 10:43:08;;;;;;;;;;;;;;;18.55;100.00;101615.72;5410587;26;19963;-72
2024/05/07 10:45:36;;;;;;;;;;;;;;;18.51;100.00;101619.28;5411491;26;19985;-71
2024/05/07 10:48:14;;;;;;;;;;;;;;;18.40;100.00;101610.22;5411864;26;20443;-72
2024/05/07 10:50:39;;;;;;;;;;;;;;;18.93;100.00;101618.72;5411870;26;20034;-71
2024/05/07 10:53:04;;;;;;;;;;;;;;;19.20;100.00;101607.28;5411796;26;19933;-71
2024/05/07 10:55:29;;;;;;;;;;;;;;;19.42;100.00;101613.63;5411699;26;20052;-71
2024/05/07 10:58:02;;;;;;;;;;;;;;;19.27;100.00;101603.75;5412005;26;19964;-69
2024/05/07 11:00:27;;;;;;;;;;;;;;;19.04;100.00;101605.41;5411516;26;20075;-69
2024/05/07 11:02:52;;;;;;;;;;;;;;;18.67;100.00;101610.50;5390293;26;20002;-72
2024/05/07 11:05:18;;;;;;;;;;;;;;;19.02;100.00;101602.72;5407431;26;19968;-71
2024/05/07 11:07:43;;;;;;;;;;;;;;;18.44;100.00;101612.06;5411603;26;19964;-72
2024/05/07 11:10:09;;;;;;;;;;;;;;;18.76;100.00;101604.31;5411150;26;19990;-72
2024/05/07 11:12:37;;;;;;;;;;;;;;;18.87;100.00;101607.09;5411313;26;20057;-73
2024/05/07 11:15:02;;;;;;;;;;;;;;;18.67;100.00;101610.50;5411101;26;19991;-69
2024/05/07 11:17:29;;;;;;;;;;;;;;;18.47;100.00;101603.16;5411456;26;19971;-69
2024/05/07 11:20:04;;;;;;;;;;;;;;;18.25;100.00;101604.75;5410680;26;20052;-70
2024/05/07 11:22:29;;;;;;;;;;;;;;;17.90;100.00;101607.94;5403294;26;19973;-71
2024/05/07 11:24:54;;;;;;;;;;;;;;;18.25;100.00;101605.63;5395894;26;19997;-70
2024/05/07 11:27:21;;;;;;;;;;;;;;;18.50;100.00;101612.13;5386372;26;20768;-71
2024/05/07 11:29:47;;;;;;;;;;;;;;;18.43;100.00;101610.25;5410796;26;19991;-71
2024/05/07 11:32:12;;;;;;;;;;;;;;;18.64;100.00;101599.78;5411241;26;19979;-73
2024/05/07 11:34:37;;;;;;;;;;;;;;;18.72;100.00;101608.75;5411186;26;20282;-70
2024/05/07 11:37:02;;;;;;;;;;;;;;;19.18;100.00;101603.72;5411635;26;19965;-71
2024/05/07 11:39:28;;;;;;;;;;;;;;;19.49;100.00;101599.38;5411625;26;20011;-71
2024/05/07 11:41:53;;;;;;;;;;;;;;;19.74;100.00;101600.41;5411582;26;20067;-72
2024/05/07 11:44:18;;;;;;;;;;;;;;;19.34;100.00;101594.84;5411025;26;19965;-71
2024/05/07 11:46:43;;;;;;;;;;;;;;;19.26;100.00;101601.94;5410794;26;19989;-71
2024/05/07 11:49:08;;;;;;;;;;;;;;;19.23;100.00;101592.97;5411140;26;19968;-73
2024/05/07 11:51:33;;;;;;;;;;;;;;;19.02;100.00;101591.09;5385855;26;20289;-69
2024/05/07 11:53:59;;;;;;;;;;;;;;;19.23;100.00;101601.91;5410275;26;19967;-71
2024/05/07 11:56:24;;;;;;;;;;;;;;;18.93;100.00;101596.41;5410108;26;20047;-70
2024/05/07 11:58:49;;;;;;;;;;;;;;;18.94;100.00;101595.50;5410627;26;20002;-70
2024/05/07 12:01:14;;;;;;;;;;;;;;;19.18;100.00;101598.34;5410895;26;20295;-69
2024/05/07 12:03:40;;;;;;;;;;;;;;;19.28;100.00;101592.13;5410674;26;19965;-71
2024/05/07 12:06:05;;;;;;;;;;;;;;;19.56;100.00;101593.19;5410849;26;19997;-71
2024/05/07 12:08:30;;;;;;;;;;;;;;;19.58;100.00;101593.19;5410283;26;19969;-73
2024/05/07 12:10:55;;;;;;;;;;;;;;;19.39;100.00;101595.75;5410757;26;19975;-71
2024/05/07 12:13:21;;;;;;;;;;;;;;;19.19;100.00;101597.47;5410499;26;20057;-71
2024/05/07 12:15:46;;;;;;;;;;;;;;;19.06;100.00;101603.63;5410733;26;19979;-71
2024/05/07 12:18:11;;;;;;;;;;;;;;;19.22;100.00;101599.25;5410372;26;20394;-72
2024/05/07 12:20:36;;;;;;;;;;;;;;;19.30;100.00;101595.72;5410615;26;19987;-73
2024/05/07 12:26:01;;;;;;;;;;;;;;;19.73;100.00;101593.25;5408138;26;20067;-71